Time;durP1;ratioP1;P1;durP2;ratioP2;P2;SDS_P1;SDS_P2;PMS_P1;PMS_P2;Temp;Humidity;BMP_temperature;BMP_pressure;BME280_temperature;BME280_humidity;BME280_pressure;Samples;Min_cycle;Max_cycle;Signal;HPM_P1;HPM_P2
2022/02/08 00:01:42;;;;;;;;;;;;;;;-1.24;81.50;97912.53;4987355;28;19966;-77
2022/02/08 00:04:08;;;;;;;;;;;;;;;-1.23;81.34;97914.19;4988755;28;19963;-76
2022/02/08 00:09:00;;;;;;;;;;;;;;;-1.24;81.42;97910.81;4992681;28;20473;-77
2022/02/08 00:11:26;;;;;;;;;;;;;;;-1.24;81.66;97910.81;4991791;28;20334;-76
2022/02/08 00:13:52;;;;;;;;;;;;;;;-1.22;81.96;97918.41;4985285;28;20054;-76
2022/02/08 00:16:18;;;;;;;;;;;;;;;-1.20;81.85;97924.28;4985310;28;20034;-76
2022/02/08 00:18:43;;;;;;;;;;;;;;;-1.16;81.72;97924.88;4987506;28;19947;-76
2022/02/08 00:21:09;;;;;;;;;;;;;;;-1.15;81.82;97923.97;4990227;28;19953;-76
2022/02/08 00:23:35;;;;;;;;;;;;;;;-1.12;82.25;97926.31;4985087;28;19951;-76
2022/02/08 00:26:01;;;;;;;;;;;;;;;-1.09;82.50;97920.94;4987754;28;19962;-77
2022/02/08 00:28:27;;;;;;;;;;;;;;;-1.06;82.74;97923.31;4988519;28;20429;-76
2022/02/08 00:30:53;;;;;;;;;;;;;;;-1.03;82.70;97930.81;4985332;28;19972;-76
2022/02/08 00:33:19;;;;;;;;;;;;;;;-0.99;82.56;97928.84;4987891;28;19958;-76
2022/02/08 00:35:45;;;;;;;;;;;;;;;-0.98;82.45;97926.16;4988618;28;20035;-76
2022/02/08 00:38:12;;;;;;;;;;;;;;;-0.96;82.67;97931.22;4988693;28;19966;-76
2022/02/08 00:40:38;;;;;;;;;;;;;;;-0.95;82.68;97930.28;4985033;28;19959;-77
2022/02/08 00:43:06;;;;;;;;;;;;;;;-0.95;83.04;97928.50;4986110;28;19962;-76
2022/02/08 00:48:31;;;;;;;;;;;;;;;-0.92;82.70;97928.31;4970060;28;19970;-76
2022/02/08 00:50:57;;;;;;;;;;;;;;;-0.91;82.57;97926.56;4981419;28;20077;-76
2022/02/08 00:53:23;;;;;;;;;;;;;;;-0.89;82.70;97922.09;4987721;28;19965;-77
2022/02/08 00:55:49;;;;;;;;;;;;;;;-0.86;82.91;97925.31;4989177;28;19981;-76
2022/02/08 00:58:15;;;;;;;;;;;;;;;-0.86;82.76;97916.72;4980474;28;19963;-76
2022/02/08 01:00:41;;;;;;;;;;;;;;;-0.84;82.73;97915.72;4984436;28;20045;-77
2022/02/08 01:03:08;;;;;;;;;;;;;;;-0.83;82.65;97916.53;4989153;28;19963;-76
2022/02/08 01:05:38;;;;;;;;;;;;;;;-0.81;83.03;97922.38;4990115;28;20299;-76
2022/02/08 01:08:04;;;;;;;;;;;;;;;-0.80;83.05;97913.72;4987604;28;19974;-76
2022/02/08 01:10:36;;;;;;;;;;;;;;;-0.79;83.07;97917.13;4980919;28;19961;-76
2022/02/08 01:13:02;;;;;;;;;;;;;;;-0.79;83.24;97923.09;4985124;28;19968;-76
2022/02/08 01:15:28;;;;;;;;;;;;;;;-0.78;83.00;97921.34;4986852;28;19958;-77
2022/02/08 01:17:57;;;;;;;;;;;;;;;-0.78;83.10;97919.56;4991055;28;19959;-76
2022/02/08 01:20:30;;;;;;;;;;;;;;;-0.76;83.17;97927.19;4988696;28;19956;-77
2022/02/08 01:22:57;;;;;;;;;;;;;;;-0.77;82.92;97928.97;4985487;28;20334;-76
2022/02/08 01:25:29;;;;;;;;;;;;;;;-0.81;83.93;97919.81;4985373;28;20304;-76
2022/02/08 01:28:03;;;;;;;;;;;;;;;-0.83;83.27;97937.13;4982583;28;19980;-76
2022/02/08 01:30:43;;;;;;;;;;;;;;;-0.82;82.48;97933.59;4986864;28;19964;-76
2022/02/08 01:38:17;;;;;;;;;;;;;;;-0.71;83.34;97932.88;4986364;28;19963;-77
2022/02/08 01:50:55;;;;;;;;;;;;;;;-0.64;83.07;97934.06;4987914;28;19955;-76
2022/02/08 01:53:21;;;;;;;;;;;;;;;-0.63;83.05;97933.94;4984924;28;20298;-76
2022/02/08 01:55:48;;;;;;;;;;;;;;;-0.61;83.46;97936.41;4983191;28;20007;-76
2022/02/08 01:58:13;;;;;;;;;;;;;;;-0.59;83.00;97931.97;4984295;28;19965;-76
2022/02/08 02:00:40;;;;;;;;;;;;;;;-0.57;83.05;97929.28;4989408;28;19962;-77
2022/02/08 02:03:06;;;;;;;;;;;;;;;-0.56;83.28;97923.19;4985861;28;19958;-76
2022/02/08 02:05:32;;;;;;;;;;;;;;;-0.55;83.13;97922.25;4982462;28;20009;-76
2022/02/08 02:07:58;;;;;;;;;;;;;;;-0.53;83.11;97922.97;4986313;28;20008;-76
2022/02/08 02:10:25;;;;;;;;;;;;;;;-0.51;83.25;97923.69;4988249;28;20418;-77
2022/02/08 02:12:54;;;;;;;;;;;;;;;-0.49;83.45;97924.38;4988114;28;19965;-76
2022/02/08 02:15:21;;;;;;;;;;;;;;;-0.47;83.46;97919.94;4986050;28;20441;-77
2022/02/08 02:17:47;;;;;;;;;;;;;;;-0.47;83.38;97922.53;4982354;28;19954;-76
2022/02/08 02:20:13;;;;;;;;;;;;;;;-0.45;83.34;97930.97;4984546;28;19959;-76
2022/02/08 02:22:38;;;;;;;;;;;;;;;-0.44;82.87;97924.91;4969221;28;20336;-76
2022/02/08 02:25:05;;;;;;;;;;;;;;;-0.44;83.16;97928.28;4983624;28;20311;-76
2022/02/08 02:27:31;;;;;;;;;;;;;;;-0.44;82.63;97933.44;4981920;28;19973;-78
2022/02/08 02:29:57;;;;;;;;;;;;;;;-0.44;82.83;97924.91;4990896;28;20335;-77
2022/02/08 02:32:23;;;;;;;;;;;;;;;-0.45;82.84;97934.34;4984752;28;19973;-76
2022/02/08 02:34:50;;;;;;;;;;;;;;;-0.45;83.03;97921.47;4983998;28;19963;-77
2022/02/08 02:37:16;;;;;;;;;;;;;;;-0.44;83.18;97919.75;4978953;28;19961;-76
2022/02/08 02:39:42;;;;;;;;;;;;;;;-0.42;83.22;97917.84;4984693;28;19956;-76
2022/02/08 02:42:14;;;;;;;;;;;;;;;-0.43;83.16;97914.44;4987079;28;20340;-76
2022/02/08 02:44:40;;;;;;;;;;;;;;;-0.42;83.45;97913.53;4986107;28;19963;-76
2022/02/08 02:47:06;;;;;;;;;;;;;;;-0.42;83.16;97920.41;4986153;28;20042;-76
2022/02/08 02:49:32;;;;;;;;;;;;;;;-0.43;83.27;97919.59;4981617;28;19971;-76
2022/02/08 02:51:58;;;;;;;;;;;;;;;-0.43;83.09;97916.22;4982849;28;19967;-76
2022/02/08 02:54:25;;;;;;;;;;;;;;;-0.43;83.09;97911.88;4986178;28;19984;-76
2022/02/08 02:56:51;;;;;;;;;;;;;;;-0.42;83.08;97915.25;4985544;28;19963;-76
2022/02/08 02:59:19;;;;;;;;;;;;;;;-0.44;83.00;97917.97;4980686;28;19957;-76
2022/02/08 03:02:09;;;;;;;;;;;;;;;-0.44;82.96;97924.91;4979801;28;19959;-76
2022/02/08 03:05:04;;;;;;;;;;;;;;;-0.45;82.82;97929.19;4975990;28;19955;-77
2022/02/08 03:18:35;;;;;;;;;;;;;;;-0.55;82.25;97935.97;4970170;28;19960;-76
2022/02/08 03:21:02;;;;;;;;;;;;;;;-0.57;82.14;97929.28;4980013;28;20424;-76
2022/02/08 03:23:28;;;;;;;;;;;;;;;-0.60;81.89;97929.50;4984878;28;19966;-76
2022/02/08 03:25:54;;;;;;;;;;;;;;;-0.63;81.98;97931.38;4987628;28;19959;-76
2022/02/08 03:28:20;;;;;;;;;;;;;;;-0.65;81.67;97933.25;4984028;28;19976;-76
2022/02/08 03:30:46;;;;;;;;;;;;;;;-0.68;81.59;97924.91;4983155;28;19969;-76
2022/02/08 03:33:12;;;;;;;;;;;;;;;-0.71;81.83;97936.25;4979310;28;19955;-76
2022/02/08 03:35:38;;;;;;;;;;;;;;;-0.73;81.88;97930.38;4984461;28;20046;-76
2022/02/08 03:38:07;;;;;;;;;;;;;;;-0.75;81.86;97944.31;4989392;28;19964;-78
2022/02/08 03:45:46;;;;;;;;;;;;;;;-0.77;81.81;97948.75;4985472;28;19949;-76
2022/02/08 03:48:15;;;;;;;;;;;;;;;-0.79;81.96;97946.28;4988783;28;19975;-78
2022/02/08 03:50:44;;;;;;;;;;;;;;;-0.79;82.25;97948.03;4980430;28;20325;-76
2022/02/08 03:53:10;;;;;;;;;;;;;;;-0.80;82.43;97946.38;4982312;28;19958;-76
2022/02/08 03:55:36;;;;;;;;;;;;;;;-0.82;82.24;97939.59;4989003;28;19987;-77
2022/02/08 03:58:02;;;;;;;;;;;;;;;-0.80;82.35;97947.19;4983813;28;20333;-76
2022/02/08 04:00:33;;;;;;;;;;;;;;;-0.80;82.43;97954.94;4982857;28;19956;-76
2022/02/08 04:02:59;;;;;;;;;;;;;;;-0.80;82.49;97954.94;4981601;28;19960;-76
2022/02/08 04:08:01;;;;;;;;;;;;;;;-0.79;82.57;97956.59;4986430;28;19976;-76
2022/02/08 04:10:29;;;;;;;;;;;;;;;-0.80;82.38;97957.50;4981168;28;19957;-76
2022/02/08 04:13:09;;;;;;;;;;;;;;;-0.79;82.14;97956.59;4982711;28;19960;-77
2022/02/08 04:34:49;;;;;;;;;;;;;;;-0.78;82.02;97944.53;4979553;28;20335;-77
2022/02/08 04:45:29;;;;;;;;;;;;;;;-0.86;81.55;97947.63;4983321;28;19960;-76
2022/02/08 04:50:24;;;;;;;;;;;;;;;-0.91;81.74;97953.13;4986654;28;19958;-77
2022/02/08 04:52:55;;;;;;;;;;;;;;;-0.91;81.86;97960.03;4986235;28;19957;-76
2022/02/08 04:56:18;;;;;;;;;;;;;;;-0.90;82.12;97961.69;4988511;28;19980;-76
2022/02/08 05:00:40;;;;;;;;;;;;;;;-0.89;82.27;97958.16;4980303;28;19959;-76
2022/02/08 05:36:32;;;;;;;;;;;;;;;-0.54;83.34;97940.19;4988273;28;19972;-76
2022/02/08 05:44:24;;;;;;;;;;;;;;;-0.39;82.86;97938.25;4987698;28;19961;-76
2022/02/08 05:46:52;;;;;;;;;;;;;;;-0.35;82.68;97942.25;4980000;28;19958;-76
2022/02/08 05:54:38;;;;;;;;;;;;;;;-0.27;83.39;97952.81;4985725;28;19985;-76
2022/02/08 05:57:05;;;;;;;;;;;;;;;-0.26;83.44;97949.31;4992596;28;19964;-77
2022/02/08 05:59:31;;;;;;;;;;;;;;;-0.24;83.56;97947.44;4988320;28;19948;-77
2022/02/08 06:01:57;;;;;;;;;;;;;;;-0.19;83.04;97946.28;4980360;28;20496;-77
2022/02/08 06:04:23;;;;;;;;;;;;;;;-0.17;83.21;97944.41;4991068;28;19955;-76
2022/02/08 06:06:48;;;;;;;;;;;;;;;-0.15;82.98;97943.34;4989624;28;19965;-77
2022/02/08 06:09:15;;;;;;;;;;;;;;;-0.13;82.98;97944.06;4980789;28;20426;-77
2022/02/08 06:11:41;;;;;;;;;;;;;;;-0.11;82.98;97942.19;4984497;28;19979;-77
2022/02/08 06:14:07;;;;;;;;;;;;;;;-0.08;82.90;97948.91;4988359;28;19954;-77
2022/02/08 06:16:33;;;;;;;;;;;;;;;-0.05;82.72;97949.47;4985444;28;19971;-77
2022/02/08 06:19:00;;;;;;;;;;;;;;;-0.04;82.92;97952.91;4985370;28;19961;-77
2022/02/08 06:21:26;;;;;;;;;;;;;;;-0.01;82.68;97945.72;4990645;28;19949;-77
2022/02/08 06:23:52;;;;;;;;;;;;;;;0.01;82.59;97952.53;4986325;28;19963;-76
2022/02/08 06:26:20;;;;;;;;;;;;;;;0.04;82.74;97953.13;4981817;28;20003;-76
2022/02/08 06:28:51;;;;;;;;;;;;;;;0.06;82.31;97955.59;4980062;28;19974;-77
2022/02/08 06:31:17;;;;;;;;;;;;;;;0.07;82.47;97962.41;4975361;28;19960;-77
2022/02/08 06:33:43;;;;;;;;;;;;;;;0.09;82.15;97961.34;4979649;28;20026;-76
2022/02/08 06:36:09;;;;;;;;;;;;;;;0.09;82.43;97963.94;4984939;28;19966;-77
2022/02/08 06:38:35;;;;;;;;;;;;;;;0.12;82.35;97962.88;4984268;28;19955;-77
2022/02/08 06:41:01;;;;;;;;;;;;;;;0.15;82.47;97975.56;4984135;28;19964;-77
2022/02/08 06:43:30;;;;;;;;;;;;;;;0.16;81.88;97972.84;4986709;28;19982;-77
2022/02/08 06:45:56;;;;;;;;;;;;;;;0.19;81.31;97970.06;4984161;28;19980;-77
2022/02/08 06:48:22;;;;;;;;;;;;;;;0.23;81.08;97978.38;4981077;28;20361;-77
2022/02/08 06:50:48;;;;;;;;;;;;;;;0.25;80.75;97971.31;4984638;28;19963;-76
2022/02/08 06:53:13;;;;;;;;;;;;;;;0.28;80.71;97970.31;4969889;28;20328;-78
2022/02/08 06:55:40;;;;;;;;;;;;;;;0.33;80.06;97965.59;4985941;28;20021;-77
2022/02/08 06:58:08;;;;;;;;;;;;;;;0.37;80.37;97973.00;4960142;28;19975;-77
2022/02/08 07:00:38;;;;;;;;;;;;;;;0.42;79.35;97969.25;4983043;28;20324;-76
2022/02/08 07:03:04;;;;;;;;;;;;;;;0.47;79.67;97969.72;4988552;28;19962;-77
2022/02/08 07:05:30;;;;;;;;;;;;;;;0.51;79.98;97982.28;4983876;28;19959;-77
2022/02/08 07:07:56;;;;;;;;;;;;;;;0.52;79.63;97976.16;4981877;28;19963;-77
2022/02/08 07:10:22;;;;;;;;;;;;;;;0.55;80.07;97977.72;4986255;28;19976;-77
2022/02/08 07:12:50;;;;;;;;;;;;;;;0.56;79.34;97976.75;4987227;28;20410;-77
2022/02/08 07:15:16;;;;;;;;;;;;;;;0.59;79.18;97982.53;4979428;28;20437;-76
2022/02/08 07:17:42;;;;;;;;;;;;;;;0.60;79.37;97980.75;4980628;28;20329;-77
2022/02/08 07:20:08;;;;;;;;;;;;;;;0.60;79.41;97973.81;4987846;28;19990;-76
2022/02/08 07:22:34;;;;;;;;;;;;;;;0.62;79.25;97973.72;4984822;28;19957;-77
2022/02/08 07:25:00;;;;;;;;;;;;;;;0.64;79.11;97987.31;4984453;28;20070;-76
2022/02/08 07:27:26;;;;;;;;;;;;;;;0.66;78.97;97984.63;4984599;28;19963;-77
2022/02/08 07:29:53;;;;;;;;;;;;;;;0.67;78.90;97983.69;4979896;28;19981;-77
2022/02/08 07:32:34;;;;;;;;;;;;;;;0.65;78.51;97976.09;4982970;28;19960;-77
2022/02/08 07:35:27;;;;;;;;;;;;;;;0.66;78.66;97985.44;4982669;28;19970;-77
2022/02/08 07:37:55;;;;;;;;;;;;;;;0.67;78.84;97981.09;4984478;28;19963;-77
2022/02/08 07:42:54;;;;;;;;;;;;;;;0.70;78.95;97978.31;4981840;28;19961;-77
2022/02/08 07:45:20;;;;;;;;;;;;;;;0.71;78.35;97964.44;4982003;28;19965;-77
2022/02/08 07:47:46;;;;;;;;;;;;;;;0.70;78.25;97961.03;4986023;28;19971;-77
2022/02/08 07:50:15;;;;;;;;;;;;;;;0.70;78.41;97955.88;4984821;28;19973;-77
2022/02/08 07:52:43;;;;;;;;;;;;;;;0.71;78.48;97951.53;4984465;28;20324;-77
2022/02/08 07:55:09;;;;;;;;;;;;;;;0.73;77.95;97947.88;4982989;28;19987;-77
2022/02/08 07:57:35;;;;;;;;;;;;;;;0.74;77.94;97953.88;4983543;28;19969;-77
2022/02/08 08:00:01;;;;;;;;;;;;;;;0.76;78.22;97955.41;4982387;28;19962;-77
2022/02/08 08:02:27;;;;;;;;;;;;;;;0.77;78.27;97954.44;4984272;28;20045;-76
2022/02/08 08:04:52;;;;;;;;;;;;;;;0.83;77.78;97948.00;4989081;28;20009;-76
2022/02/08 08:07:18;;;;;;;;;;;;;;;0.88;77.71;97952.81;4982763;28;19967;-76
2022/02/08 08:09:44;;;;;;;;;;;;;;;0.94;77.52;97944.56;4987158;28;19991;-77
2022/02/08 08:12:13;;;;;;;;;;;;;;;1.41;76.92;97942.59;4987652;28;20426;-76
2022/02/08 08:14:39;;;;;;;;;;;;;;;1.88;73.84;97924.16;4985170;28;20320;-77
2022/02/08 08:17:38;;;;;;;;;;;;;;;2.02;73.47;97918.66;4993418;28;19967;-78
2022/02/08 08:20:00;;;;;;;;;;;;;;;1.99;73.55;97924.06;4974598;28;19965;-76
2022/02/08 08:22:25;;;;;;;;;;;;;;;1.97;73.26;97920.78;4985558;28;19957;-76
2022/02/08 08:24:51;;;;;;;;;;;;;;;1.91;73.02;97931.63;4986259;28;20045;-76
2022/02/08 08:27:18;;;;;;;;;;;;;;;1.88;72.92;97929.31;4992181;28;20395;-75
2022/02/08 08:29:44;;;;;;;;;;;;;;;1.95;73.64;97943.38;4984400;28;20359;-76
2022/02/08 08:32:10;;;;;;;;;;;;;;;1.95;73.92;97949.41;4981997;28;20424;-76
2022/02/08 08:34:36;;;;;;;;;;;;;;;1.87;72.19;97927.66;4986237;28;19988;-76
2022/02/08 08:37:03;;;;;;;;;;;;;;;1.81;73.29;97941.94;4990142;28;19961;-75
2022/02/08 08:39:39;;;;;;;;;;;;;;;1.77;73.31;97941.38;4985325;28;19983;-75
2022/02/08 08:52:32;;;;;;;;;;;;;;;2.93;71.37;97904.00;4987645;28;19956;-75
2022/02/08 08:54:58;;;;;;;;;;;;;;;3.25;70.95;97896.00;4981167;28;19989;-76
2022/02/08 08:57:25;;;;;;;;;;;;;;;3.52;69.28;97878.94;4991638;28;19963;-75
2022/02/08 08:59:51;;;;;;;;;;;;;;;3.80;68.04;97859.09;4990578;28;19957;-75
2022/02/08 09:02:17;;;;;;;;;;;;;;;3.94;67.52;97862.19;4984044;28;20362;-75
2022/02/08 09:04:44;;;;;;;;;;;;;;;4.10;66.68;97854.66;4988294;28;20437;-75
2022/02/08 09:07:28;;;;;;;;;;;;;;;4.24;66.96;97850.75;4971517;28;19946;-75
2022/02/08 09:09:59;;;;;;;;;;;;;;;4.31;64.79;97832.84;4983684;28;19978;-76
2022/02/08 09:12:27;;;;;;;;;;;;;;;4.44;65.94;97846.28;4990720;28;19955;-75
2022/02/08 09:15:19;;;;;;;;;;;;;;;4.60;66.85;97856.88;4987244;28;19961;-76
2022/02/08 09:21:57;;;;;;;;;;;;;;;4.90;64.66;97825.53;4952939;28;19967;-75
2022/02/08 09:26:32;;;;;;;;;;;;;;;5.22;61.93;97798.97;4986193;28;19969;-75
2022/02/08 09:29:04;;;;;;;;;;;;;;;5.29;62.41;97806.03;4985175;28;19975;-76
2022/02/08 09:31:32;;;;;;;;;;;;;;;5.37;60.73;97768.84;4986529;28;19964;-76
2022/02/08 09:33:58;;;;;;;;;;;;;;;5.31;60.08;97781.66;4988381;28;20407;-75
2022/02/08 09:36:25;;;;;;;;;;;;;;;5.26;61.16;97788.13;4987876;28;19965;-75
2022/02/08 09:38:54;;;;;;;;;;;;;;;5.25;59.51;97777.88;4983850;28;19958;-75
2022/02/08 09:41:22;;;;;;;;;;;;;;;5.29;62.41;97797.41;4981836;28;19963;-75
2022/02/08 09:43:49;;;;;;;;;;;;;;;5.35;62.83;97815.00;4986117;28;19971;-75
2022/02/08 09:46:16;;;;;;;;;;;;;;;5.44;60.01;97769.88;4990660;28;19965;-75
2022/02/08 09:48:52;;;;;;;;;;;;;;;5.51;60.03;97777.91;4985175;28;19958;-75
2022/02/08 09:51:18;;;;;;;;;;;;;;;5.62;60.95;97784.63;4987163;28;19980;-76
2022/02/08 09:53:44;;;;;;;;;;;;;;;5.72;62.15;97798.34;4985928;28;19961;-75
2022/02/08 09:56:11;;;;;;;;;;;;;;;5.84;60.10;97778.91;4979721;28;19976;-75
2022/02/08 09:58:37;;;;;;;;;;;;;;;5.89;59.54;97762.81;4984206;28;19970;-76
2022/02/08 10:01:12;;;;;;;;;;;;;;;5.99;59.10;97755.72;4985365;28;19958;-75
2022/02/08 10:03:55;;;;;;;;;;;;;;;6.17;59.19;97754.81;4990801;28;19959;-76
2022/02/08 10:06:23;;;;;;;;;;;;;;;6.15;58.84;97757.56;4984473;28;19965;-75
2022/02/08 10:09:01;;;;;;;;;;;;;;;6.06;59.30;97766.34;4985691;28;19957;-75
2022/02/08 10:11:40;;;;;;;;;;;;;;;6.19;60.06;97782.34;4984546;28;20416;-75
2022/02/08 10:22:53;;;;;;;;;;;;;;;6.73;59.76;97770.78;4941520;29;19965;-75
2022/02/08 10:25:38;;;;;;;;;;;;;;;6.74;58.42;97738.50;4945526;29;19996;-75
2022/02/08 10:28:27;;;;;;;;;;;;;;;6.64;56.86;97729.03;4964168;28;19960;-75
2022/02/08 10:31:07;;;;;;;;;;;;;;;6.68;56.38;97730.34;4974192;28;19977;-76
2022/02/08 10:39:06;;;;;;;;;;;;;;;6.87;58.47;97749.28;4977678;28;19957;-77
2022/02/08 10:41:34;;;;;;;;;;;;;;;6.99;59.71;97768.84;4984378;28;19959;-75
2022/02/08 10:44:07;;;;;;;;;;;;;;;7.14;59.83;97768.19;4980233;28;19962;-76
2022/02/08 10:46:36;;;;;;;;;;;;;;;7.26;58.00;97743.41;4985993;28;19959;-75
2022/02/08 10:49:15;;;;;;;;;;;;;;;7.56;59.11;97752.34;4989436;28;19957;-75
2022/02/08 10:51:49;;;;;;;;;;;;;;;7.88;57.84;97745.41;4966337;28;19959;-73
2022/02/08 10:54:36;;;;;;;;;;;;;;;8.17;59.84;97754.41;4978434;28;19966;-76
2022/02/08 10:57:09;;;;;;;;;;;;;;;8.45;58.44;97736.50;4986082;28;19964;-76
2022/02/08 10:59:47;;;;;;;;;;;;;;;8.60;54.25;97692.94;4986499;28;19966;-75
2022/02/08 11:02:28;;;;;;;;;;;;;;;8.65;55.46;97711.56;4985009;28;19964;-75
2022/02/08 11:07:56;;;;;;;;;;;;;;;9.03;56.59;97721.22;4979284;28;20472;-75
2022/02/08 11:10:34;;;;;;;;;;;;;;;9.21;54.86;97694.75;4983858;28;19979;-75
2022/02/08 11:13:26;;;;;;;;;;;;;;;9.31;54.77;97690.88;4989734;28;19958;-75
2022/02/08 11:16:02;;;;;;;;;;;;;;;9.43;55.73;97706.13;4986170;28;19953;-75
2022/02/08 11:18:57;;;;;;;;;;;;;;;9.55;55.36;97697.69;4984240;28;19963;-75
2022/02/08 11:26:25;;;;;;;;;;;;;;;9.74;55.95;97711.19;4980518;28;20426;-75
2022/02/08 11:28:51;;;;;;;;;;;;;;;9.82;53.46;97668.38;4981198;28;19959;-75
2022/02/08 11:31:32;;;;;;;;;;;;;;;9.97;51.85;97661.31;4988783;28;20347;-75
2022/02/08 11:43:06;;;;;;;;;;;;;;;10.40;53.26;97656.16;4987252;28;20030;-75
2022/02/08 11:50:57;;;;;;;;;;;;;;;10.54;54.83;97681.53;4987040;28;19975;-75
2022/02/08 11:58:41;;;;;;;;;;;;;;;9.89;56.73;97711.19;4984308;28;19960;-75
2022/02/08 12:01:16;;;;;;;;;;;;;;;9.75;57.38;97725.94;4981888;28;20327;-75
2022/02/08 12:04:12;;;;;;;;;;;;;;;9.63;57.30;97715.09;4982397;28;19975;-76
2022/02/08 12:09:18;;;;;;;;;;;;;;;9.47;58.73;97750.13;4987590;28;19959;-75
2022/02/08 12:12:04;;;;;;;;;;;;;;;9.42;59.72;97756.88;4985592;28;19958;-75
2022/02/08 12:29:39;;;;;;;;;;;;;;;9.39;59.02;97731.06;4985102;28;19990;-77
2022/02/08 12:58:32;;;;;;;;;;;;;;;9.47;59.58;97730.97;4986938;28;19961;-75
2022/02/08 13:01:55;;;;;;;;;;;;;;;9.48;60.06;97736.03;4982615;28;20456;-75
2022/02/08 13:04:06;;;;;;;;;;;;;;;9.46;60.33;97737.22;4984543;28;19960;-75
2022/02/08 13:16:18;;;;;;;;;;;;;;;9.46;59.92;97724.13;4977054;28;19965;-75
2022/02/08 14:01:54;;;;;;;;;;;;;;;8.81;63.28;97746.41;4988597;28;19966;-75
2022/02/08 14:07:13;;;;;;;;;;;;;;;8.87;63.43;97730.03;4986603;28;19964;-75
2022/02/08 14:12:49;;;;;;;;;;;;;;;8.80;63.31;97732.53;4985518;28;19964;-75
2022/02/08 14:20:58;;;;;;;;;;;;;;;8.96;63.03;97723.72;4982769;28;19964;-75
2022/02/08 14:23:38;;;;;;;;;;;;;;;9.03;63.10;97724.66;4985953;28;20416;-75
2022/02/08 15:10:19;;;;;;;;;;;;;;;8.55;65.09;97718.81;4978520;28;19979;-75
2022/02/08 15:12:51;;;;;;;;;;;;;;;8.54;65.13;97723.19;4968175;28;19967;-75
2022/02/08 15:15:28;;;;;;;;;;;;;;;8.51;65.16;97726.19;4979344;28;19960;-75
2022/02/08 15:17:54;;;;;;;;;;;;;;;8.49;65.71;97732.56;4965638;28;19960;-75
2022/02/08 15:20:22;;;;;;;;;;;;;;;8.50;66.13;97737.63;4985054;28;19955;-75
2022/02/08 15:22:47;;;;;;;;;;;;;;;8.48;65.44;97726.53;4985073;28;19972;-75
2022/02/08 15:25:14;;;;;;;;;;;;;;;8.47;65.90;97731.94;4988847;28;19964;-75
2022/02/08 15:27:41;;;;;;;;;;;;;;;8.46;65.40;97736.34;4985802;28;19962;-75
2022/02/08 15:30:08;;;;;;;;;;;;;;;8.41;65.07;97728.19;4982600;28;19960;-75
2022/02/08 15:32:35;;;;;;;;;;;;;;;8.36;65.44;97727.03;4983635;28;19965;-75
2022/02/08 15:35:02;;;;;;;;;;;;;;;8.34;65.75;97732.47;4990203;28;19961;-75
2022/02/08 15:37:31;;;;;;;;;;;;;;;8.33;66.04;97733.44;4980841;28;19956;-75
2022/02/08 15:40:01;;;;;;;;;;;;;;;8.30;66.27;97731.19;4984804;28;19975;-75
2022/02/08 15:42:31;;;;;;;;;;;;;;;8.28;66.32;97733.16;4984303;28;20390;-75
2022/02/08 15:45:10;;;;;;;;;;;;;;;8.24;66.13;97729.25;4985457;28;19961;-75
2022/02/08 15:47:36;;;;;;;;;;;;;;;8.23;66.79;97736.28;4983499;28;19961;-75
2022/02/08 15:50:09;;;;;;;;;;;;;;;8.21;66.78;97745.25;4990194;28;20040;-75
2022/02/08 15:55:46;;;;;;;;;;;;;;;8.14;66.28;97734.66;4979041;28;19986;-75
2022/02/08 16:09:10;;;;;;;;;;;;;;;8.11;67.42;97761.16;4972274;28;19958;-75
2022/02/08 16:25:12;;;;;;;;;;;;;;;7.99;67.90;97755.47;4980449;28;19966;-75
2022/02/08 16:27:20;;;;;;;;;;;;;;;7.98;68.53;97768.69;4975915;28;19961;-74
2022/02/08 16:30:30;;;;;;;;;;;;;;;7.97;68.22;97780.94;4985324;28;19962;-75
2022/02/08 16:46:21;;;;;;;;;;;;;;;7.71;69.13;97795.06;4984032;28;19960;-75
2022/02/08 16:59:24;;;;;;;;;;;;;;;7.64;69.35;97801.94;4986877;28;19972;-75
2022/02/08 17:01:51;;;;;;;;;;;;;;;7.64;69.23;97796.72;4990446;28;19969;-75
2022/02/08 17:04:17;;;;;;;;;;;;;;;7.65;69.54;97794.91;4984062;28;20325;-75
2022/02/08 17:06:43;;;;;;;;;;;;;;;7.64;69.31;97791.50;4980378;28;19959;-75
2022/02/08 17:09:17;;;;;;;;;;;;;;;7.64;69.37;97791.50;4991419;28;19957;-75
2022/02/08 17:12:37;;;;;;;;;;;;;;;7.65;69.63;97795.72;4992024;28;19969;-75
2022/02/08 17:14:46;;;;;;;;;;;;;;;7.64;69.50;97793.25;4977041;28;19963;-75
2022/02/08 17:17:40;;;;;;;;;;;;;;;7.60;69.64;97794.56;4980644;28;19958;-75
2022/02/08 17:49:38;;;;;;;;;;;;;;;7.43;71.46;97805.06;4979412;28;19955;-76
2022/02/08 17:52:04;;;;;;;;;;;;;;;7.41;71.37;97814.84;4986316;28;19989;-75
2022/02/08 17:54:29;;;;;;;;;;;;;;;7.39;71.52;97810.75;4972077;28;19982;-75
2022/02/08 17:56:57;;;;;;;;;;;;;;;7.38;71.56;97816.97;4985865;28;20052;-75
2022/02/08 17:59:24;;;;;;;;;;;;;;;7.36;71.70;97816.31;4986872;28;19961;-75
2022/02/08 18:01:50;;;;;;;;;;;;;;;7.32;72.06;97823.63;4989702;28;19959;-75
2022/02/08 18:04:17;;;;;;;;;;;;;;;7.30;72.11;97817.75;4988615;28;19956;-75
2022/02/08 18:06:43;;;;;;;;;;;;;;;7.28;72.17;97812.69;4987827;28;19954;-75
2022/02/08 18:09:09;;;;;;;;;;;;;;;7.26;72.25;97814.66;4980004;28;20401;-75
2022/02/08 18:11:40;;;;;;;;;;;;;;;7.22;72.44;97818.56;4984988;28;19993;-75
2022/02/08 18:14:09;;;;;;;;;;;;;;;7.19;72.56;97820.72;4985990;28;19965;-75
2022/02/08 18:16:36;;;;;;;;;;;;;;;7.18;72.48;97822.50;4988435;28;19960;-75
2022/02/08 18:19:16;;;;;;;;;;;;;;;7.17;72.86;97826.06;4988403;28;20339;-75
2022/02/08 18:21:57;;;;;;;;;;;;;;;7.16;72.53;97816.63;4986866;28;19960;-75
2022/02/08 19:08:45;;;;;;;;;;;;;;;6.93;73.99;97839.91;4981927;28;19965;-75
2022/02/08 19:16:02;;;;;;;;;;;;;;;6.89;72.93;97842.03;4987411;28;20006;-75
2022/02/08 19:23:43;;;;;;;;;;;;;;;6.89;72.82;97830.78;4990653;28;19960;-75
2022/02/08 19:26:09;;;;;;;;;;;;;;;6.90;72.77;97833.22;4982571;28;19968;-75
2022/02/08 19:28:35;;;;;;;;;;;;;;;6.91;72.91;97842.69;4980550;28;20387;-75
2022/02/08 19:31:01;;;;;;;;;;;;;;;6.90;73.17;97841.03;4978680;28;19976;-76
2022/02/08 19:33:27;;;;;;;;;;;;;;;6.91;72.99;97837.47;4985985;28;19990;-74
2022/02/08 19:35:53;;;;;;;;;;;;;;;6.91;72.71;97839.25;4989850;28;20022;-75
2022/02/08 19:38:21;;;;;;;;;;;;;;;6.90;72.82;97846.25;4980139;28;19969;-75
2022/02/08 19:40:47;;;;;;;;;;;;;;;6.90;73.19;97850.66;4982557;28;20426;-75
2022/02/08 19:43:13;;;;;;;;;;;;;;;6.91;73.36;97854.91;4987339;28;20417;-75
2022/02/08 19:45:44;;;;;;;;;;;;;;;6.90;73.54;97867.09;4986687;28;20006;-74
2022/02/08 19:48:11;;;;;;;;;;;;;;;6.91;73.64;97854.91;4983095;28;20343;-74
2022/02/08 19:50:40;;;;;;;;;;;;;;;6.90;73.59;97850.66;4981857;28;19963;-74
2022/02/08 19:53:07;;;;;;;;;;;;;;;6.88;73.82;97844.78;4987674;28;19986;-74
2022/02/08 19:58:09;;;;;;;;;;;;;;;6.86;74.01;97846.72;4978028;28;19979;-75
2022/02/08 20:00:36;;;;;;;;;;;;;;;6.84;74.10;97857.31;4986284;28;19964;-74
2022/02/08 20:03:04;;;;;;;;;;;;;;;6.84;74.41;97865.13;4982731;28;19963;-75
2022/02/08 20:05:32;;;;;;;;;;;;;;;6.82;74.42;97867.09;4987034;28;19952;-74
2022/02/08 20:07:58;;;;;;;;;;;;;;;6.81;74.32;97865.47;4987902;28;19966;-74
2022/02/08 20:10:26;;;;;;;;;;;;;;;6.80;74.61;97870.84;4986258;28;19958;-74
2022/02/08 20:12:53;;;;;;;;;;;;;;;6.78;74.71;97878.00;4986217;28;19985;-74
2022/02/08 20:15:20;;;;;;;;;;;;;;;6.76;74.55;97870.34;4987683;28;20027;-76
2022/02/08 20:17:50;;;;;;;;;;;;;;;6.74;74.56;97861.88;4970106;28;19962;-74
2022/02/08 20:20:19;;;;;;;;;;;;;;;6.75;74.70;97873.13;4988750;28;19967;-74
2022/02/08 20:22:53;;;;;;;;;;;;;;;6.70;74.94;97869.19;4986575;28;19957;-75
2022/02/08 20:25:22;;;;;;;;;;;;;;;6.70;75.25;97884.84;4983339;28;19972;-75
2022/02/08 20:30:15;;;;;;;;;;;;;;;6.67;75.20;97877.31;4989731;28;19970;-76
2022/02/08 20:32:42;;;;;;;;;;;;;;;6.67;75.08;97885.13;4987299;28;19971;-74
2022/02/08 20:35:08;;;;;;;;;;;;;;;6.65;75.05;97874.03;4991628;28;20412;-74
2022/02/08 20:37:38;;;;;;;;;;;;;;;6.65;75.17;97887.06;4985396;28;19962;-74
2022/02/08 20:40:04;;;;;;;;;;;;;;;6.62;75.23;97884.78;4984212;28;20433;-74
2022/02/08 20:42:31;;;;;;;;;;;;;;;6.61;75.49;97880.53;4987079;28;20341;-74
2022/02/08 20:44:56;;;;;;;;;;;;;;;6.61;75.34;97890.16;4991668;28;19960;-74
2022/02/08 20:47:25;;;;;;;;;;;;;;;6.59;75.30;97885.09;4988126;28;20403;-75
2022/02/08 20:49:58;;;;;;;;;;;;;;;6.57;75.24;97887.03;4988901;28;20414;-74
2022/02/08 20:52:24;;;;;;;;;;;;;;;6.56;75.41;97895.03;4986714;28;19979;-74
2022/02/08 20:55:01;;;;;;;;;;;;;;;6.53;75.91;97897.94;4984523;28;19991;-74